createdAt,value
2023-05-12T00:03:20.977Z,14.86
2023-05-12T00:08:24.011Z,14.81
2023-05-12T00:13:29.140Z,14.76
2023-05-12T00:18:32.192Z,14.71
2023-05-12T00:23:37.382Z,14.68
2023-05-12T00:28:40.326Z,14.62
2023-05-12T00:33:43.230Z,14.56
2023-05-12T00:38:46.191Z,14.49
2023-05-12T00:43:49.611Z,14.41
2023-05-12T00:48:52.886Z,14.36
2023-05-12T00:53:57.499Z,14.32
2023-05-12T00:59:00.563Z,14.26
2023-05-12T01:04:04.621Z,14.21
2023-05-12T01:09:08.726Z,14.16
2023-05-12T01:14:12.083Z,14.12
2023-05-12T01:19:31.840Z,14.08
2023-05-12T01:24:42.512Z,14.05
2023-05-12T01:29:47.503Z,14.03
2023-05-12T01:34:52.720Z,14.01
2023-05-12T01:39:56.789Z,13.97
2023-05-12T01:44:59.784Z,13.93
2023-05-12T01:50:03.789Z,13.88
2023-05-12T01:55:09.217Z,13.83
2023-05-12T02:00:30.596Z,13.80
2023-05-12T02:05:33.900Z,13.76
2023-05-12T02:10:37.414Z,13.73
2023-05-12T02:15:40.458Z,13.70
2023-05-12T02:20:43.895Z,13.65
2023-05-12T02:25:46.894Z,13.60
2023-05-12T02:30:51.091Z,13.55
2023-05-12T02:35:54.390Z,13.50
2023-05-12T02:40:57.448Z,13.45
2023-05-12T02:46:02.231Z,13.42
2023-05-12T02:51:06.068Z,13.39
2023-05-12T02:56:09.135Z,13.35
2023-05-12T03:01:12.284Z,13.31
2023-05-12T03:06:16.275Z,13.27
2023-05-12T03:11:19.551Z,13.21
2023-05-12T03:16:22.764Z,13.15
2023-05-12T03:21:26.057Z,13.08
2023-05-12T03:26:29.039Z,13.05
2023-05-12T03:31:32.178Z,13.02
2023-05-12T03:36:35.161Z,12.99
2023-05-12T03:41:39.089Z,12.96
2023-05-12T03:46:42.409Z,12.97
2023-05-12T03:51:45.449Z,13.01
2023-05-12T03:56:48.451Z,13.03
2023-05-12T04:01:53.508Z,13.07
2023-05-12T04:06:56.929Z,13.12
2023-05-12T04:12:01.142Z,13.14
2023-05-12T04:17:04.979Z,13.15
2023-05-12T04:22:07.890Z,13.15
2023-05-12T04:27:10.849Z,13.16
2023-05-12T04:32:14.618Z,13.18
2023-05-12T04:37:17.775Z,13.18
2023-05-12T04:42:21.317Z,13.16
2023-05-12T04:47:24.447Z,13.15
2023-05-12T04:52:27.667Z,13.15
2023-05-12T04:57:30.670Z,13.17
2023-05-12T05:02:34.719Z,13.24
2023-05-12T05:07:38.073Z,13.28
2023-05-12T05:12:41.274Z,13.32
2023-05-12T05:17:49.262Z,13.38
2023-05-12T05:22:52.892Z,13.47
2023-05-12T05:27:56.097Z,13.54
2023-05-12T05:32:59.581Z,13.60
2023-05-12T05:38:03.722Z,13.72
2023-05-12T05:43:08.557Z,13.91
2023-05-12T05:48:11.827Z,14.06
2023-05-12T05:53:15.047Z,14.18
2023-05-12T05:58:18.491Z,14.28
2023-05-12T06:03:23.649Z,14.35
2023-05-12T06:08:26.913Z,14.46
2023-05-12T06:13:30.812Z,14.57
2023-05-12T06:18:37.908Z,14.69
2023-05-12T06:23:41.647Z,14.82
2023-05-12T06:28:44.645Z,14.93
2023-05-12T06:33:47.846Z,15.08
2023-05-12T06:38:51.186Z,15.21
2023-05-12T06:43:54.230Z,15.33
2023-05-12T06:49:03.679Z,15.43
2023-05-12T06:54:06.697Z,15.49
2023-05-12T06:59:09.685Z,15.54
2023-05-12T07:04:12.986Z,15.63
2023-05-12T07:09:18.825Z,15.77
2023-05-12T07:14:21.765Z,15.89
2023-05-12T07:19:24.676Z,16.02
2023-05-12T07:24:28.029Z,16.14
2023-05-12T07:29:31.569Z,16.26
2023-05-12T07:34:34.596Z,16.41
2023-05-12T07:39:37.518Z,16.55
2023-05-12T07:44:41.431Z,16.69
2023-05-12T07:49:44.404Z,16.82
2023-05-12T07:54:47.359Z,16.94
2023-05-12T07:59:50.381Z,17.05
2023-05-12T08:04:53.310Z,17.20
2023-05-12T08:09:56.332Z,17.33
2023-05-12T08:14:59.704Z,17.47
2023-05-12T08:20:07.373Z,17.63
2023-05-12T08:25:12.411Z,17.77
2023-05-12T08:30:16.077Z,17.91
2023-05-12T08:35:21.052Z,18.09
2023-05-12T08:40:25.834Z,18.28
2023-05-12T08:45:29.774Z,18.60
2023-05-12T08:50:35.597Z,18.82
2023-05-12T08:55:50.815Z,18.97
2023-05-12T09:01:05.292Z,19.10
2023-05-12T09:06:10.934Z,19.24
2023-05-12T09:11:14.603Z,19.43
2023-05-12T09:16:22.572Z,19.68
2023-05-12T09:21:26.650Z,19.93
2023-05-12T09:26:29.747Z,20.19
2023-05-12T09:31:32.764Z,20.34
2023-05-12T09:36:36.694Z,20.50
2023-05-12T09:41:43.249Z,20.63
2023-05-12T09:46:48.031Z,20.77
2023-05-12T09:51:59.839Z,20.91
2023-05-12T09:57:05.238Z,21.04
2023-05-12T10:02:09.594Z,21.13
2023-05-12T10:07:14.536Z,21.14
2023-05-12T10:12:17.686Z,21.00
2023-05-12T10:17:21.319Z,20.94
2023-05-12T10:22:25.315Z,21.00
2023-05-12T10:27:30.055Z,21.26
2023-05-12T10:32:34.544Z,21.31
2023-05-12T10:37:40.088Z,21.35
2023-05-12T10:42:43.334Z,21.50
2023-05-12T10:47:47.339Z,21.71
2023-05-12T10:52:54.936Z,22.01
2023-05-12T10:58:10.112Z,22.18
2023-05-12T11:03:17.407Z,22.26
2023-05-12T11:08:23.392Z,22.14
2023-05-12T11:13:26.843Z,22.03
2023-05-12T11:18:29.841Z,21.84
2023-05-12T11:23:33.259Z,21.56
2023-05-12T11:28:42.437Z,21.55
2023-05-12T11:33:45.398Z,21.83
2023-05-12T11:38:50.446Z,21.89
2023-05-12T11:43:56.083Z,21.95
2023-05-12T11:49:00.200Z,21.96
2023-05-12T11:54:03.443Z,21.88
2023-05-12T11:59:06.450Z,21.78
2023-05-12T12:04:09.755Z,21.86
2023-05-12T12:09:13.657Z,21.84
2023-05-12T12:14:16.936Z,21.59
2023-05-12T12:19:20.136Z,21.72
2023-05-12T12:24:24.222Z,22.13
2023-05-12T12:29:28.554Z,22.07
2023-05-12T12:34:31.990Z,21.86
2023-05-12T12:39:35.060Z,21.90
2023-05-12T12:44:37.986Z,22.21
2023-05-12T12:49:40.987Z,22.53
2023-05-12T12:54:43.945Z,22.64
2023-05-12T12:59:46.927Z,22.98
2023-05-12T13:04:50.021Z,23.50
2023-05-12T13:09:53.080Z,23.67
2023-05-12T13:14:56.390Z,23.45
2023-05-12T13:19:59.289Z,23.08
2023-05-12T13:25:03.541Z,22.84
2023-05-12T13:30:08.427Z,22.86
2023-05-12T13:35:11.442Z,22.90
2023-05-12T13:40:14.402Z,22.83
2023-05-12T13:45:18.360Z,22.94
2023-05-12T13:50:22.568Z,22.91
2023-05-12T13:55:25.788Z,22.63
2023-05-12T14:00:29.984Z,22.38
2023-05-12T14:05:33.098Z,22.48
2023-05-12T14:10:36.406Z,22.83
2023-05-12T14:15:48.648Z,23.13
2023-05-12T14:20:52.517Z,23.29
2023-05-12T14:25:55.687Z,23.33
2023-05-12T14:30:58.850Z,23.31
2023-05-12T14:36:07.266Z,23.22
2023-05-12T14:41:11.726Z,23.16
2023-05-12T14:46:15.196Z,23.05
2023-05-12T14:51:18.474Z,22.89
2023-05-12T14:56:21.433Z,22.74
2023-05-12T15:01:24.428Z,22.47
2023-05-12T15:06:27.961Z,22.20
2023-05-12T15:11:31.054Z,22.03
2023-05-12T15:16:34.435Z,21.90
2023-05-12T15:21:37.597Z,21.76
2023-05-12T15:26:40.782Z,21.63
2023-05-12T15:31:44.027Z,21.48
2023-05-12T15:36:48.994Z,21.36
2023-05-12T15:41:52.321Z,21.33
2023-05-12T15:46:55.822Z,21.32
2023-05-12T15:51:59.051Z,21.23
2023-05-12T15:57:02.385Z,21.07
2023-05-12T16:02:05.371Z,20.95
2023-05-12T16:07:08.707Z,20.94
2023-05-12T16:12:11.951Z,20.93
2023-05-12T16:17:15.091Z,20.86
2023-05-12T16:22:18.034Z,20.76
2023-05-12T16:27:21.279Z,20.71
2023-05-12T16:32:24.397Z,20.70
2023-05-12T16:37:27.923Z,20.67
2023-05-12T16:42:31.308Z,20.68
2023-05-12T16:47:34.348Z,20.69
2023-05-12T16:52:37.353Z,20.70
2023-05-12T16:57:42.656Z,20.67
2023-05-12T17:02:46.505Z,20.60
2023-05-12T17:07:49.765Z,20.56
2023-05-12T17:12:53.087Z,20.53
2023-05-12T17:17:56.891Z,20.48
2023-05-12T17:23:00.333Z,20.43
2023-05-12T17:28:04.667Z,20.41
2023-05-12T17:33:08.525Z,20.36
2023-05-12T17:38:11.671Z,20.31
2023-05-12T17:43:16.346Z,20.22
2023-05-12T17:48:19.587Z,20.03
2023-05-12T17:53:22.823Z,19.81
2023-05-12T17:58:26.049Z,19.61
2023-05-12T18:03:29.062Z,19.46
2023-05-12T18:08:32.211Z,19.30
2023-05-12T18:13:35.156Z,19.16
2023-05-12T18:18:38.692Z,19.02
2023-05-12T18:23:41.832Z,18.89
2023-05-12T18:28:44.886Z,18.77
2023-05-12T18:33:48.913Z,18.67
2023-05-12T18:38:51.868Z,18.61
2023-05-12T18:43:54.932Z,18.51
2023-05-12T18:48:57.999Z,18.37
2023-05-12T18:54:01.054Z,18.24
2023-05-12T18:59:04.336Z,18.12
2023-05-12T19:04:07.751Z,18.00
2023-05-12T19:09:11.101Z,17.89
2023-05-12T19:14:16.048Z,17.79
2023-05-12T19:19:19.155Z,17.69
2023-05-12T19:24:25.690Z,17.62
2023-05-12T19:29:28.809Z,17.59
2023-05-12T19:34:32.364Z,17.57
2023-05-12T19:39:35.383Z,17.52
2023-05-12T19:44:38.360Z,17.46
2023-05-12T19:49:41.842Z,17.43
2023-05-12T19:54:45.002Z,17.42
2023-05-12T19:59:48.041Z,17.40
2023-05-12T20:04:51.065Z,17.39
2023-05-12T20:09:54.371Z,17.37
2023-05-12T20:14:57.681Z,17.35
2023-05-12T20:20:02.362Z,17.32
2023-05-12T20:25:05.953Z,17.30
2023-05-12T20:30:10.181Z,17.28
2023-05-12T20:35:13.211Z,17.26
2023-05-12T20:40:16.389Z,17.21
2023-05-12T20:45:20.036Z,17.19
2023-05-12T20:50:23.954Z,17.17
2023-05-12T20:55:27.038Z,17.13
2023-05-12T21:00:30.035Z,17.10
2023-05-12T21:05:33.191Z,17.03
2023-05-12T21:10:39.393Z,16.96
2023-05-12T21:15:42.592Z,16.89
2023-05-12T21:20:45.730Z,16.82
2023-05-12T21:25:49.208Z,16.75
2023-05-12T21:30:52.318Z,16.69
2023-05-12T21:35:55.286Z,16.61
2023-05-12T21:40:59.152Z,16.55
2023-05-12T21:46:03.902Z,16.50
2023-05-12T21:51:07.299Z,16.42
2023-05-12T21:56:10.347Z,16.35
2023-05-12T22:01:13.288Z,16.33
2023-05-12T22:06:16.737Z,16.30
2023-05-12T22:11:19.909Z,16.28
2023-05-12T22:16:31.094Z,16.24
2023-05-12T22:21:37.980Z,16.20
2023-05-12T22:26:41.493Z,16.15
2023-05-12T22:31:44.685Z,16.11
2023-05-12T22:36:47.813Z,16.08
2023-05-12T22:41:51.201Z,16.03
2023-05-12T22:46:54.176Z,15.98
2023-05-12T22:51:57.257Z,15.92
2023-05-12T22:57:00.428Z,15.86
2023-05-12T23:02:03.540Z,15.81
2023-05-12T23:07:09.027Z,15.76
2023-05-12T23:12:12.348Z,15.71
2023-05-12T23:17:15.366Z,15.64
2023-05-12T23:22:18.355Z,15.58
2023-05-12T23:27:21.496Z,15.52
2023-05-12T23:32:24.591Z,15.46
2023-05-12T23:37:27.678Z,15.38
2023-05-12T23:42:30.758Z,15.29
2023-05-12T23:47:33.870Z,15.21
2023-05-12T23:52:37.176Z,15.13
2023-05-12T23:57:40.209Z,15.04
